createdAt,value
2022-12-31T00:02:18.493Z,76.04
2022-12-31T00:04:45.096Z,75.88
2022-12-31T00:07:11.611Z,75.65
2022-12-31T00:09:38.153Z,76.04
2022-12-31T00:12:04.683Z,75.86
2022-12-31T00:14:31.248Z,75.89
2022-12-31T00:16:57.791Z,76.14
2022-12-31T00:19:24.387Z,75.95
2022-12-31T00:21:50.889Z,76.02
2022-12-31T00:24:17.935Z,75.88
2022-12-31T00:26:44.513Z,75.64
2022-12-31T00:29:11.090Z,75.71
2022-12-31T00:31:38.215Z,75.59
2022-12-31T00:34:04.910Z,75.65
2022-12-31T00:36:35.182Z,75.78
2022-12-31T00:39:02.743Z,75.51
2022-12-31T00:41:29.382Z,75.32
2022-12-31T00:44:01.541Z,75.40
2022-12-31T00:46:28.116Z,75.03
2022-12-31T00:48:54.863Z,74.96
2022-12-31T00:51:22.193Z,74.96
2022-12-31T00:53:48.716Z,74.87
2022-12-31T00:56:16.062Z,74.80
2022-12-31T00:58:42.620Z,75.09
2022-12-31T01:01:12.993Z,74.71
2022-12-31T01:03:39.654Z,74.71
2022-12-31T01:06:06.525Z,74.65
2022-12-31T01:08:33.263Z,74.81
2022-12-31T01:11:19.167Z,74.23
2022-12-31T01:13:50.027Z,74.10
2022-12-31T01:16:16.932Z,73.78
2022-12-31T01:18:43.461Z,74.40
2022-12-31T01:21:10.875Z,74.28
2022-12-31T01:23:39.554Z,74.03
2022-12-31T01:26:06.912Z,74.71
2022-12-31T01:28:33.657Z,74.14
2022-12-31T01:31:03.229Z,74.63
2022-12-31T01:33:29.752Z,74.59
2022-12-31T01:35:56.252Z,74.00
2022-12-31T01:38:22.748Z,74.11
2022-12-31T01:40:49.254Z,74.19
2022-12-31T01:43:17.575Z,74.32
2022-12-31T01:45:44.893Z,74.00
2022-12-31T01:48:12.266Z,74.15
2022-12-31T01:50:39.963Z,73.94
2022-12-31T01:53:06.820Z,73.54
2022-12-31T01:55:34.022Z,73.66
2022-12-31T01:58:07.696Z,73.93
2022-12-31T02:00:34.228Z,74.26
2022-12-31T02:03:00.889Z,74.05
2022-12-31T02:05:29.737Z,73.70
2022-12-31T02:07:56.248Z,73.66
2022-12-31T02:10:22.793Z,73.85
2022-12-31T02:12:49.294Z,73.69
2022-12-31T02:15:15.863Z,74.09
2022-12-31T02:17:45.455Z,74.13
2022-12-31T02:20:32.721Z,73.45
2022-12-31T02:23:05.024Z,73.56
2022-12-31T02:25:31.593Z,73.38
2022-12-31T02:28:04.442Z,73.80
2022-12-31T02:30:31.371Z,73.19
2022-12-31T02:33:06.568Z,73.11
2022-12-31T02:35:56.358Z,72.84
2022-12-31T02:38:24.108Z,72.69
2022-12-31T02:40:50.873Z,72.02
2022-12-31T02:43:17.438Z,71.92
2022-12-31T02:45:45.348Z,71.99
2022-12-31T02:48:17.546Z,71.89
2022-12-31T02:50:55.834Z,71.52
2022-12-31T02:53:30.779Z,71.46
2022-12-31T02:56:03.334Z,71.90
2022-12-31T02:58:51.568Z,71.78
2022-12-31T03:01:39.010Z,72.24
2022-12-31T03:04:24.377Z,72.09
2022-12-31T03:06:51.477Z,72.09
2022-12-31T03:09:18.001Z,72.45
2022-12-31T03:12:02.969Z,73.11
2022-12-31T03:14:29.497Z,72.69
2022-12-31T03:16:56.022Z,72.86
2022-12-31T03:19:41.317Z,72.86
2022-12-31T03:22:26.678Z,73.25
2022-12-31T03:25:19.741Z,73.12
2022-12-31T03:27:47.237Z,73.07
2022-12-31T03:30:14.629Z,72.49
2022-12-31T03:32:41.488Z,72.59
2022-12-31T03:35:08.404Z,72.31
2022-12-31T03:37:34.954Z,72.86
2022-12-31T03:40:01.606Z,73.25
2022-12-31T03:42:28.175Z,73.21
2022-12-31T03:44:54.771Z,72.97
2022-12-31T03:47:21.336Z,72.72
2022-12-31T03:49:47.854Z,72.01
2022-12-31T03:52:14.354Z,71.94
2022-12-31T03:54:40.897Z,72.29
2022-12-31T03:57:07.433Z,72.18
2022-12-31T03:59:34.004Z,71.77
2022-12-31T04:02:00.550Z,71.43
2022-12-31T04:04:27.123Z,71.39
2022-12-31T04:06:53.839Z,71.36
2022-12-31T04:09:20.367Z,71.24
2022-12-31T04:11:46.906Z,70.83
2022-12-31T04:14:13.519Z,71.01
2022-12-31T04:16:40.074Z,71.02
2022-12-31T04:19:07.067Z,70.70
2022-12-31T04:21:35.323Z,70.45
2022-12-31T04:24:02.711Z,70.78
2022-12-31T04:26:29.352Z,71.00
2022-12-31T04:28:55.874Z,70.82
2022-12-31T04:31:22.490Z,70.47
2022-12-31T04:33:49.083Z,70.44
2022-12-31T04:36:15.574Z,70.41
2022-12-31T04:38:42.127Z,70.26
2022-12-31T04:41:17.809Z,70.21
2022-12-31T04:43:45.619Z,70.62
2022-12-31T04:46:12.176Z,70.14
2022-12-31T04:48:38.698Z,70.42
2022-12-31T04:51:05.235Z,70.18
2022-12-31T04:53:31.831Z,70.79
2022-12-31T04:55:58.369Z,71.16
2022-12-31T04:58:24.897Z,71.53
2022-12-31T05:00:52.717Z,71.38
2022-12-31T05:03:19.260Z,71.21
2022-12-31T05:05:45.842Z,71.13
2022-12-31T05:08:12.366Z,71.23
2022-12-31T05:10:42.855Z,71.05
2022-12-31T05:13:09.366Z,70.75
2022-12-31T05:15:35.858Z,71.26
2022-12-31T05:18:02.510Z,71.60
2022-12-31T05:20:29.067Z,71.73
2022-12-31T05:22:55.658Z,72.11
2022-12-31T05:25:22.538Z,72.38
2022-12-31T05:27:49.037Z,72.27
2022-12-31T05:30:15.682Z,72.01
2022-12-31T05:32:42.191Z,71.86
2022-12-31T05:35:08.986Z,71.65
2022-12-31T05:37:35.532Z,72.05
2022-12-31T05:40:02.086Z,72.12
2022-12-31T05:42:28.883Z,72.14
2022-12-31T05:44:55.427Z,72.00
2022-12-31T05:47:22.018Z,72.50
2022-12-31T05:49:48.562Z,72.71
2022-12-31T05:52:15.139Z,71.93
2022-12-31T05:54:41.655Z,71.99
2022-12-31T05:57:08.182Z,72.26
2022-12-31T05:59:34.821Z,72.26
2022-12-31T06:02:01.370Z,71.96
2022-12-31T06:04:27.883Z,72.17
2022-12-31T06:06:54.409Z,72.07
2022-12-31T06:09:21.096Z,72.27
2022-12-31T06:11:47.621Z,72.09
2022-12-31T06:14:14.224Z,71.91
2022-12-31T06:16:40.917Z,71.60
2022-12-31T06:19:07.446Z,71.52
2022-12-31T06:21:34.028Z,71.71
2022-12-31T06:24:00.518Z,71.28
2022-12-31T06:26:27.645Z,70.97
2022-12-31T06:28:54.293Z,71.19
2022-12-31T06:31:20.869Z,70.55
2022-12-31T06:33:47.354Z,71.10
2022-12-31T06:36:14.361Z,70.97
2022-12-31T06:38:41.679Z,70.54
2022-12-31T06:41:10.244Z,70.51
2022-12-31T06:43:37.013Z,70.67
2022-12-31T06:46:04.246Z,70.00
2022-12-31T06:48:30.858Z,70.14
2022-12-31T06:50:57.505Z,69.49
2022-12-31T06:53:24.047Z,69.98
2022-12-31T06:55:50.686Z,69.96
2022-12-31T06:58:17.357Z,69.59
2022-12-31T07:00:52.612Z,69.61
2022-12-31T07:03:38.032Z,69.87
2022-12-31T07:06:14.045Z,69.79
2022-12-31T07:08:43.602Z,69.91
2022-12-31T07:11:12.815Z,70.04
2022-12-31T07:13:48.137Z,69.93
2022-12-31T07:16:18.529Z,69.99
2022-12-31T07:18:53.201Z,70.03
2022-12-31T07:21:21.815Z,69.94
2022-12-31T07:23:49.769Z,70.07
2022-12-31T07:26:22.821Z,69.68
2022-12-31T07:28:51.404Z,69.79
2022-12-31T07:31:22.994Z,69.63
2022-12-31T07:33:59.592Z,69.85
2022-12-31T07:36:32.377Z,69.62
2022-12-31T07:39:13.221Z,69.78
2022-12-31T07:41:51.972Z,69.50
2022-12-31T07:44:37.032Z,69.89
2022-12-31T07:47:04.837Z,69.51
2022-12-31T07:49:31.741Z,69.55
2022-12-31T07:51:58.401Z,69.60
2022-12-31T07:54:24.984Z,69.29
2022-12-31T07:56:51.489Z,69.39
2022-12-31T07:59:38.454Z,69.07
2022-12-31T08:02:07.449Z,68.85
2022-12-31T08:04:38.037Z,68.77
2022-12-31T08:07:04.574Z,68.77
2022-12-31T08:09:39.905Z,68.36
2022-12-31T08:12:07.175Z,68.10
2022-12-31T08:14:42.140Z,68.05
2022-12-31T08:17:10.334Z,68.31
2022-12-31T08:19:36.986Z,67.76
2022-12-31T08:22:22.078Z,67.56
2022-12-31T08:24:57.889Z,67.25
2022-12-31T08:27:28.659Z,66.88
2022-12-31T08:30:01.235Z,66.33
2022-12-31T08:32:31.244Z,66.42
2022-12-31T08:35:06.919Z,65.96
2022-12-31T08:37:37.511Z,66.30
2022-12-31T08:40:13.181Z,65.69
2022-12-31T08:43:02.818Z,66.06
2022-12-31T08:45:32.491Z,66.15
2022-12-31T08:48:03.315Z,66.10
2022-12-31T08:50:30.166Z,65.69
2022-12-31T08:52:56.802Z,65.36
2022-12-31T08:55:23.428Z,65.63
2022-12-31T08:58:08.535Z,65.40
2022-12-31T09:00:35.482Z,65.28
2022-12-31T09:03:11.158Z,64.99
2022-12-31T09:05:43.474Z,64.71
2022-12-31T09:08:21.908Z,64.68
2022-12-31T09:10:54.274Z,64.69
2022-12-31T09:13:40.984Z,64.45
2022-12-31T09:16:07.479Z,64.57
2022-12-31T09:18:34.999Z,64.65
2022-12-31T09:21:01.610Z,64.92
2022-12-31T09:23:28.162Z,64.46
2022-12-31T09:26:07.576Z,64.09
2022-12-31T09:28:40.628Z,63.31
2022-12-31T09:31:14.155Z,63.06
2022-12-31T09:33:45.254Z,63.17
2022-12-31T09:36:14.640Z,62.20
2022-12-31T09:38:45.103Z,62.10
2022-12-31T09:41:16.383Z,62.48
2022-12-31T09:44:00.888Z,62.13
2022-12-31T09:46:46.534Z,61.97
2022-12-31T09:49:31.719Z,61.78
2022-12-31T09:52:04.014Z,61.34
2022-12-31T09:54:39.556Z,60.87
2022-12-31T09:57:17.159Z,60.86
2022-12-31T09:59:53.179Z,60.48
2022-12-31T10:02:29.123Z,59.97
2022-12-31T10:05:11.992Z,60.46
2022-12-31T10:07:50.428Z,59.79
2022-12-31T10:10:18.955Z,59.70
2022-12-31T10:12:59.138Z,59.40
2022-12-31T10:15:33.014Z,59.07
2022-12-31T10:18:17.845Z,58.26
2022-12-31T10:20:45.554Z,58.04
2022-12-31T10:23:24.506Z,57.92
2022-12-31T10:26:02.980Z,58.10
2022-12-31T10:28:30.972Z,57.96
2022-12-31T10:31:03.093Z,57.92
2022-12-31T10:33:42.033Z,58.05
2022-12-31T10:36:09.532Z,57.38
2022-12-31T10:38:45.811Z,57.54
2022-12-31T10:41:31.207Z,57.16
2022-12-31T10:44:06.762Z,56.64
2022-12-31T10:46:51.879Z,55.44
2022-12-31T10:49:18.322Z,55.04
2022-12-31T10:51:53.965Z,54.02
2022-12-31T10:54:26.665Z,53.98
2022-12-31T10:57:07.350Z,53.96
2022-12-31T10:59:54.202Z,54.94
2022-12-31T11:02:26.933Z,55.52
2022-12-31T11:05:20.793Z,55.18
2022-12-31T11:07:47.255Z,54.22
2022-12-31T11:10:36.910Z,54.50
2022-12-31T11:13:15.369Z,54.53
2022-12-31T11:15:51.584Z,53.93
2022-12-31T11:18:23.746Z,53.95
2022-12-31T11:20:56.460Z,54.48
2022-12-31T11:23:41.679Z,54.08
2022-12-31T11:26:11.057Z,54.94
2022-12-31T11:28:37.611Z,54.44
2022-12-31T11:31:10.404Z,54.07
2022-12-31T11:33:50.620Z,53.92
2022-12-31T11:36:25.666Z,52.78
2022-12-31T11:39:11.164Z,54.21
2022-12-31T11:41:46.767Z,54.22
2022-12-31T11:44:18.416Z,53.53
2022-12-31T11:47:03.485Z,54.03
2022-12-31T11:49:38.903Z,52.75
2022-12-31T11:52:25.659Z,53.43
2022-12-31T11:54:54.267Z,53.13
2022-12-31T11:57:29.982Z,53.02
2022-12-31T12:00:00.892Z,53.16
2022-12-31T12:02:37.231Z,53.54
2022-12-31T12:05:10.618Z,52.03
2022-12-31T12:07:38.043Z,52.59
2022-12-31T12:10:07.445Z,52.11
2022-12-31T12:12:40.688Z,52.10
2022-12-31T12:15:07.992Z,52.34
2022-12-31T12:17:34.514Z,52.06
2022-12-31T12:20:02.380Z,52.18
2022-12-31T12:22:29.880Z,52.23
2022-12-31T12:24:58.130Z,52.53
2022-12-31T12:27:27.380Z,52.98
2022-12-31T12:29:53.931Z,51.50
2022-12-31T12:32:21.457Z,52.33
2022-12-31T12:34:50.153Z,52.04
2022-12-31T12:37:19.874Z,51.71
2022-12-31T12:39:46.835Z,51.79
2022-12-31T12:42:14.148Z,52.11
2022-12-31T12:44:42.020Z,52.52
2022-12-31T12:47:11.812Z,52.53
2022-12-31T12:49:39.112Z,53.32
2022-12-31T12:52:05.580Z,53.23
2022-12-31T12:54:44.536Z,53.16
2022-12-31T12:57:16.272Z,53.34
2022-12-31T13:00:01.639Z,53.15
2022-12-31T13:02:34.203Z,53.74
2022-12-31T13:05:06.814Z,52.30
2022-12-31T13:07:38.365Z,53.58
2022-12-31T13:10:27.441Z,52.17
2022-12-31T13:15:52.792Z,52.54
2022-12-31T13:18:31.592Z,52.62
2022-12-31T13:21:19.899Z,52.05
2022-12-31T13:23:48.786Z,52.31
2022-12-31T13:26:23.455Z,51.75
2022-12-31T13:28:50.533Z,51.16
2022-12-31T13:31:18.320Z,50.96
2022-12-31T13:33:47.988Z,52.06
2022-12-31T13:36:15.654Z,51.25
2022-12-31T13:38:42.561Z,51.63
2022-12-31T13:41:09.679Z,50.90
2022-12-31T13:43:43.382Z,51.36
2022-12-31T13:46:18.736Z,51.42
2022-12-31T13:48:48.686Z,52.30
2022-12-31T13:51:18.344Z,51.91
2022-12-31T13:53:48.523Z,52.11
2022-12-31T13:56:16.890Z,52.73
2022-12-31T13:58:48.683Z,53.52
2022-12-31T14:01:17.094Z,53.61
2022-12-31T14:03:43.634Z,54.58
2022-12-31T14:06:12.366Z,53.63
2022-12-31T14:08:39.685Z,54.24
2022-12-31T14:11:06.201Z,54.95
2022-12-31T14:13:51.623Z,55.55
2022-12-31T14:16:47.306Z,55.23
2022-12-31T14:19:19.025Z,55.94
2022-12-31T14:21:57.692Z,56.05
2022-12-31T14:24:53.632Z,56.89
2022-12-31T14:27:24.549Z,57.37
2022-12-31T14:29:57.569Z,56.85
2022-12-31T14:32:43.062Z,55.92
2022-12-31T14:35:16.582Z,57.02
2022-12-31T14:37:48.816Z,57.14
2022-12-31T14:40:37.488Z,56.88
2022-12-31T14:43:13.097Z,56.18
2022-12-31T14:45:47.075Z,56.99
2022-12-31T14:48:32.269Z,57.28
2022-12-31T14:50:59.297Z,56.95
2022-12-31T14:53:26.248Z,56.77
2022-12-31T14:56:02.572Z,56.40
2022-12-31T14:58:39.594Z,56.33
2022-12-31T15:01:14.963Z,56.25
2022-12-31T15:03:45.714Z,57.85
2022-12-31T15:06:25.809Z,58.10
2022-12-31T15:09:07.485Z,59.16
2022-12-31T15:11:39.917Z,59.76
2022-12-31T15:14:25.059Z,60.33
2022-12-31T15:17:00.837Z,60.82
2022-12-31T15:19:27.294Z,61.13
2022-12-31T15:21:55.612Z,61.59
2022-12-31T15:24:25.695Z,61.51
2022-12-31T15:26:53.173Z,61.64
2022-12-31T15:29:23.838Z,61.64
2022-12-31T15:31:50.343Z,62.15
2022-12-31T15:34:29.637Z,62.59
2022-12-31T15:36:57.923Z,62.81
2022-12-31T15:39:40.918Z,61.94
2022-12-31T15:42:37.912Z,62.04
2022-12-31T15:45:06.333Z,60.93
2022-12-31T15:47:37.206Z,60.96
2022-12-31T15:50:08.139Z,61.24
2022-12-31T15:52:54.915Z,61.32
2022-12-31T15:55:37.790Z,62.25
2022-12-31T15:58:05.554Z,62.49
2022-12-31T16:00:38.670Z,63.02
2022-12-31T16:03:10.597Z,63.58
2022-12-31T16:05:37.138Z,63.12
2022-12-31T16:08:03.675Z,63.64
2022-12-31T16:10:30.965Z,63.16
2022-12-31T16:12:57.646Z,63.73
2022-12-31T16:15:25.981Z,64.75
2022-12-31T16:17:59.465Z,64.67
2022-12-31T16:20:26.957Z,64.76
2022-12-31T16:22:56.268Z,65.61
2022-12-31T16:25:31.951Z,65.81
2022-12-31T16:27:59.188Z,65.27
2022-12-31T16:30:32.930Z,65.31
2022-12-31T16:33:00.997Z,65.74
2022-12-31T16:35:35.001Z,65.80
2022-12-31T16:38:11.274Z,66.07
2022-12-31T16:40:38.094Z,66.45
2022-12-31T16:43:04.686Z,66.10
2022-12-31T16:45:35.366Z,66.32
2022-12-31T16:48:14.699Z,66.48
2022-12-31T16:51:03.185Z,66.58
2022-12-31T16:53:30.597Z,66.68
2022-12-31T16:56:03.862Z,66.74
2022-12-31T16:58:31.112Z,66.83
2022-12-31T17:01:05.269Z,66.55
2022-12-31T17:03:31.885Z,65.37
2022-12-31T17:06:01.556Z,64.14
2022-12-31T17:08:29.501Z,63.36
2022-12-31T17:10:56.675Z,62.31
2022-12-31T17:13:28.419Z,62.10
2022-12-31T17:15:55.661Z,61.56
2022-12-31T17:18:23.047Z,61.39
2022-12-31T17:20:50.748Z,60.75
2022-12-31T17:23:19.983Z,61.34
2022-12-31T17:25:46.500Z,62.23
2022-12-31T17:28:22.909Z,62.47
2022-12-31T17:30:49.769Z,62.64
2022-12-31T17:33:22.511Z,63.20
2022-12-31T17:35:49.868Z,63.88
2022-12-31T17:38:22.915Z,64.07
2022-12-31T17:40:53.621Z,64.92
2022-12-31T17:43:20.738Z,65.61
2022-12-31T17:45:47.494Z,65.58
2022-12-31T17:48:14.581Z,65.54
2022-12-31T17:50:51.068Z,65.63
2022-12-31T17:53:17.773Z,64.34
2022-12-31T17:55:47.739Z,63.98
2022-12-31T17:58:18.284Z,63.23
2022-12-31T18:00:44.846Z,63.35
2022-12-31T18:03:11.612Z,63.17
2022-12-31T18:05:38.141Z,63.22
2022-12-31T18:08:04.888Z,63.28
2022-12-31T18:10:32.320Z,63.29
2022-12-31T18:12:58.925Z,63.60
2022-12-31T18:15:25.490Z,63.33
2022-12-31T18:17:52.034Z,62.90
2022-12-31T18:20:18.963Z,62.68
2022-12-31T18:22:45.453Z,62.13
2022-12-31T18:25:19.083Z,61.85
2022-12-31T18:27:45.716Z,61.38
2022-12-31T18:30:12.427Z,61.82
2022-12-31T18:32:39.166Z,62.54
2022-12-31T18:35:06.534Z,62.67
2022-12-31T18:37:33.037Z,62.72
2022-12-31T18:39:59.567Z,62.94
2022-12-31T18:42:26.307Z,63.31
2022-12-31T18:44:52.795Z,63.83
2022-12-31T18:47:19.964Z,63.89
2022-12-31T18:49:48.689Z,64.49
2022-12-31T18:52:16.683Z,64.62
2022-12-31T18:54:43.260Z,65.41
2022-12-31T18:57:12.798Z,65.70
2022-12-31T18:59:39.325Z,66.02
2022-12-31T19:02:06.126Z,66.19
2022-12-31T19:04:32.728Z,66.16
2022-12-31T19:06:59.271Z,66.00
2022-12-31T19:12:12.958Z,65.51
2022-12-31T19:14:39.493Z,65.26
2022-12-31T19:19:31.355Z,65.51
2022-12-31T19:21:57.907Z,65.09
2022-12-31T19:24:26.595Z,65.26
2022-12-31T19:26:53.524Z,65.55
2022-12-31T19:29:21.766Z,65.83
2022-12-31T19:31:48.493Z,65.38
2022-12-31T19:34:15.097Z,65.31
2022-12-31T19:36:44.066Z,65.43
2022-12-31T19:39:13.627Z,65.24
2022-12-31T19:41:41.696Z,65.53
2022-12-31T19:44:12.242Z,65.66
2022-12-31T19:46:38.763Z,65.49
2022-12-31T19:49:05.423Z,65.80
2022-12-31T19:51:31.960Z,66.46
2022-12-31T19:53:58.469Z,66.33
2022-12-31T19:56:25.011Z,66.44
2022-12-31T19:58:51.547Z,67.14
2022-12-31T20:01:21.712Z,66.72
2022-12-31T20:03:48.462Z,66.80
2022-12-31T20:06:15.105Z,67.27
2022-12-31T20:08:44.695Z,66.74
2022-12-31T20:11:12.878Z,66.24
2022-12-31T20:13:39.927Z,65.84
2022-12-31T20:16:07.490Z,65.67
2022-12-31T20:18:33.987Z,65.95
2022-12-31T20:21:00.477Z,65.24
2022-12-31T20:23:27.071Z,65.25
2022-12-31T20:25:59.866Z,64.69
2022-12-31T20:28:26.427Z,64.52
2022-12-31T20:30:53.019Z,64.12
2022-12-31T20:33:19.898Z,63.80
2022-12-31T20:35:46.440Z,63.76
2022-12-31T20:38:12.979Z,63.95
2022-12-31T20:40:46.163Z,63.93
2022-12-31T20:43:13.313Z,63.75
2022-12-31T20:45:40.935Z,63.55
2022-12-31T20:48:07.522Z,63.65
2022-12-31T20:50:34.196Z,63.66
2022-12-31T20:53:00.696Z,63.41
2022-12-31T20:55:27.439Z,63.70
2022-12-31T20:57:54.008Z,63.84
2022-12-31T21:00:20.540Z,63.80
2022-12-31T21:02:55.488Z,62.95
2022-12-31T21:05:27.286Z,63.43
2022-12-31T21:07:54.010Z,63.09
2022-12-31T21:10:20.551Z,63.32
2022-12-31T21:12:53.249Z,63.30
2022-12-31T21:15:20.533Z,63.70
2022-12-31T21:17:47.025Z,63.66
2022-12-31T21:20:13.557Z,63.54
2022-12-31T21:22:40.163Z,63.62
2022-12-31T21:25:06.879Z,63.53
2022-12-31T21:27:33.484Z,64.00
2022-12-31T21:32:46.660Z,64.38
2022-12-31T21:38:00.743Z,64.45
2022-12-31T21:40:27.757Z,64.84
2022-12-31T21:42:54.332Z,64.91
2022-12-31T21:45:20.982Z,64.96
2022-12-31T21:48:06.407Z,64.49
2022-12-31T21:50:33.181Z,64.20
2022-12-31T21:52:59.745Z,63.93
2022-12-31T21:55:45.039Z,63.76
2022-12-31T21:58:25.688Z,63.57
2022-12-31T22:01:11.756Z,63.17
2022-12-31T22:03:38.643Z,63.17
2022-12-31T22:06:10.187Z,63.10
2022-12-31T22:08:36.994Z,63.25
2022-12-31T22:11:03.530Z,63.36
2022-12-31T22:13:30.023Z,63.42
2022-12-31T22:16:03.868Z,63.52
2022-12-31T22:18:32.301Z,64.03
2022-12-31T22:21:05.696Z,64.06
2022-12-31T22:23:32.772Z,64.86
2022-12-31T22:25:59.352Z,65.24
2022-12-31T22:28:41.377Z,65.17
2022-12-31T22:31:09.180Z,65.33
2022-12-31T22:33:35.749Z,65.43
2022-12-31T22:36:03.418Z,65.05
2022-12-31T22:38:30.057Z,64.87
2022-12-31T22:41:06.742Z,64.75
2022-12-31T22:43:34.130Z,64.50
2022-12-31T22:46:05.705Z,64.76
2022-12-31T22:48:32.284Z,64.65
2022-12-31T22:50:58.788Z,65.06
2022-12-31T22:53:25.297Z,65.25
2022-12-31T22:55:53.439Z,65.41
2022-12-31T22:58:19.936Z,65.44
2022-12-31T23:00:47.001Z,65.46
2022-12-31T23:03:13.982Z,65.18
2022-12-31T23:05:40.727Z,64.50
2022-12-31T23:08:18.797Z,64.13
2022-12-31T23:11:03.800Z,64.07
2022-12-31T23:13:50.827Z,63.90
2022-12-31T23:16:36.734Z,63.97
2022-12-31T23:19:22.010Z,64.44
2022-12-31T23:22:07.353Z,64.40
2022-12-31T23:24:33.891Z,64.59
2022-12-31T23:27:00.589Z,64.45
2022-12-31T23:29:27.097Z,64.84
2022-12-31T23:31:53.670Z,65.50
2022-12-31T23:34:20.239Z,65.71
2022-12-31T23:36:46.759Z,65.86
2022-12-31T23:39:13.596Z,66.06
2022-12-31T23:41:40.264Z,65.63
2022-12-31T23:44:06.885Z,65.86
2022-12-31T23:46:33.515Z,65.81
2022-12-31T23:49:00.134Z,65.71
2022-12-31T23:51:26.700Z,65.44
2022-12-31T23:53:53.194Z,65.56
2022-12-31T23:56:23.714Z,65.51
2022-12-31T23:58:57.080Z,65.28
